sensor_id;sensor_type;location;lat;lon;timestamp;temperature;humidity
23591;DHT22;11973;52.098;7.582;2023-11-19T00:00:32;9.20;99.90
23591;DHT22;11973;52.098;7.582;2023-11-19T00:02:57;9.20;99.90
23591;DHT22;11973;52.098;7.582;2023-11-19T00:05:23;9.20;99.90
23591;DHT22;11973;52.098;7.582;2023-11-19T00:07:49;9.30;99.90
23591;DHT22;11973;52.098;7.582;2023-11-19T00:10:16;9.30;99.90
23591;DHT22;11973;52.098;7.582;2023-11-19T00:12:45;9.40;99.90
23591;DHT22;11973;52.098;7.582;2023-11-19T00:15:15;9.30;99.90
23591;DHT22;11973;52.098;7.582;2023-11-19T00:17:42;9.40;99.90
23591;DHT22;11973;52.098;7.582;2023-11-19T00:20:19;9.40;99.90
23591;DHT22;11973;52.098;7.582;2023-11-19T00:22:47;9.40;99.90
23591;DHT22;11973;52.098;7.582;2023-11-19T00:25:17;9.60;99.90
23591;DHT22;11973;52.098;7.582;2023-11-19T00:27:43;9.50;99.90
23591;DHT22;11973;52.098;7.582;2023-11-19T05:32:06;11.60;99.90
23591;DHT22;11973;52.098;7.582;2023-11-19T05:34:32;11.60;99.90
23591;DHT22;11973;52.098;7.582;2023-11-19T05:36:58;11.60;99.90
23591;DHT22;11973;52.098;7.582;2023-11-19T05:39:24;11.60;99.90
23591;DHT22;11973;52.098;7.582;2023-11-19T05:41:50;11.60;99.90
23591;DHT22;11973;52.098;7.582;2023-11-19T05:44:16;11.60;99.90
23591;DHT22;11973;52.098;7.582;2023-11-19T05:46:42;11.70;99.90
23591;DHT22;11973;52.098;7.582;2023-11-19T05:49:09;11.60;99.90
23591;DHT22;11973;52.098;7.582;2023-11-19T05:51:38;11.60;99.90
23591;DHT22;11973;52.098;7.582;2023-11-19T05:54:08;11.50;99.90
23591;DHT22;11973;52.098;7.582;2023-11-19T05:56:35;11.50;99.90
23591;DHT22;11973;52.098;7.582;2023-11-19T05:59:01;11.50;99.90
23591;DHT22;11973;52.098;7.582;2023-11-19T06:01:29;11.60;99.90
23591;DHT22;11973;52.098;7.582;2023-11-19T06:03:55;11.60;99.90
23591;DHT22;11973;52.098;7.582;2023-11-19T06:06:21;11.60;99.90
23591;DHT22;11973;52.098;7.582;2023-11-19T06:08:47;11.60;99.90
23591;DHT22;11973;52.098;7.582;2023-11-19T06:11:13;11.60;99.90
23591;DHT22;11973;52.098;7.582;2023-11-19T06:13:44;11.60;99.90
23591;DHT22;11973;52.098;7.582;2023-11-19T06:16:09;11.60;99.90
23591;DHT22;11973;52.098;7.582;2023-11-19T06:18:36;11.60;99.90
23591;DHT22;11973;52.098;7.582;2023-11-19T06:21:02;11.60;99.90
23591;DHT22;11973;52.098;7.582;2023-11-19T06:23:28;11.60;99.90
23591;DHT22;11973;52.098;7.582;2023-11-19T06:25:54;11.60;99.90
23591;DHT22;11973;52.098;7.582;2023-11-19T06:28:19;11.60;99.90
23591;DHT22;11973;52.098;7.582;2023-11-19T06:30:45;11.70;99.90
23591;DHT22;11973;52.098;7.582;2023-11-19T06:33:14;11.60;99.90
23591;DHT22;11973;52.098;7.582;2023-11-19T06:35:40;11.60;99.90
23591;DHT22;11973;52.098;7.582;2023-11-19T06:38:06;11.60;99.90
23591;DHT22;11973;52.098;7.582;2023-11-19T06:40:35;11.60;99.90
23591;DHT22;11973;52.098;7.582;2023-11-19T06:43:01;11.60;99.90
23591;DHT22;11973;52.098;7.582;2023-11-19T06:45:29;11.60;99.90
23591;DHT22;11973;52.098;7.582;2023-11-19T06:47:55;11.60;99.90
23591;DHT22;11973;52.098;7.582;2023-11-19T06:50:21;11.60;99.90
23591;DHT22;11973;52.098;7.582;2023-11-19T06:52:47;11.70;99.90
23591;DHT22;11973;52.098;7.582;2023-11-19T06:55:12;11.70;99.90
23591;DHT22;11973;52.098;7.582;2023-11-19T06:57:38;11.70;99.90
23591;DHT22;11973;52.098;7.582;2023-11-19T07:00:06;11.60;99.90
23591;DHT22;11973;52.098;7.582;2023-11-19T07:02:32;11.70;99.90
23591;DHT22;11973;52.098;7.582;2023-11-19T07:04:57;11.70;99.90
23591;DHT22;11973;52.098;7.582;2023-11-19T07:07:23;11.70;99.90
23591;DHT22;11973;52.098;7.582;2023-11-19T07:09:49;11.70;99.90
23591;DHT22;11973;52.098;7.582;2023-11-19T07:12:15;11.60;99.90
23591;DHT22;11973;52.098;7.582;2023-11-19T07:14:41;11.60;99.90
23591;DHT22;11973;52.098;7.582;2023-11-19T07:17:08;11.70;99.90
23591;DHT22;11973;52.098;7.582;2023-11-19T07:19:36;11.70;99.90
23591;DHT22;11973;52.098;7.582;2023-11-19T07:22:04;11.70;99.90
23591;DHT22;11973;52.098;7.582;2023-11-19T07:24:30;11.70;99.90
23591;DHT22;11973;52.098;7.582;2023-11-19T07:26:55;11.70;99.90
23591;DHT22;11973;52.098;7.582;2023-11-19T07:29:21;11.70;99.90
23591;DHT22;11973;52.098;7.582;2023-11-19T07:31:48;11.60;99.90
23591;DHT22;11973;52.098;7.582;2023-11-19T07:34:14;11.60;99.90
23591;DHT22;11973;52.098;7.582;2023-11-19T07:36:40;11.70;99.90
23591;DHT22;11973;52.098;7.582;2023-11-19T07:39:06;11.70;99.90
23591;DHT22;11973;52.098;7.582;2023-11-19T07:41:33;11.60;99.90
23591;DHT22;11973;52.098;7.582;2023-11-19T07:44:00;11.70;99.90
23591;DHT22;11973;52.098;7.582;2023-11-19T07:46:26;11.60;99.90
23591;DHT22;11973;52.098;7.582;2023-11-19T07:48:52;11.60;99.90
23591;DHT22;11973;52.098;7.582;2023-11-19T07:51:18;11.60;99.90
23591;DHT22;11973;52.098;7.582;2023-11-19T07:53:44;11.70;99.90
23591;DHT22;11973;52.098;7.582;2023-11-19T07:56:10;11.80;99.90
23591;DHT22;11973;52.098;7.582;2023-11-19T07:58:36;11.70;99.90
23591;DHT22;11973;52.098;7.582;2023-11-19T08:01:02;11.70;99.90
23591;DHT22;11973;52.098;7.582;2023-11-19T08:03:28;11.70;99.90
23591;DHT22;11973;52.098;7.582;2023-11-19T08:05:58;11.80;99.90
23591;DHT22;11973;52.098;7.582;2023-11-19T08:08:24;11.80;99.90
23591;DHT22;11973;52.098;7.582;2023-11-19T08:10:50;11.80;99.90
23591;DHT22;11973;52.098;7.582;2023-11-19T08:13:18;11.80;99.90
23591;DHT22;11973;52.098;7.582;2023-11-19T08:15:51;11.80;99.90
23591;DHT22;11973;52.098;7.582;2023-11-19T08:18:17;11.80;99.90
23591;DHT22;11973;52.098;7.582;2023-11-19T08:20:44;11.80;99.90
23591;DHT22;11973;52.098;7.582;2023-11-19T08:23:10;11.90;99.90
23591;DHT22;11973;52.098;7.582;2023-11-19T08:25:36;11.90;99.90
23591;DHT22;11973;52.098;7.582;2023-11-19T08:28:02;12.00;99.90
23591;DHT22;11973;52.098;7.582;2023-11-19T08:30:29;11.90;99.90
23591;DHT22;11973;52.098;7.582;2023-11-19T08:32:55;11.90;99.90
23591;DHT22;11973;52.098;7.582;2023-11-19T08:35:21;12.00;99.90
23591;DHT22;11973;52.098;7.582;2023-11-19T08:37:47;12.00;99.90
23591;DHT22;11973;52.098;7.582;2023-11-19T08:40:13;12.00;99.90
23591;DHT22;11973;52.098;7.582;2023-11-19T08:42:40;12.10;99.90
23591;DHT22;11973;52.098;7.582;2023-11-19T08:45:07;12.10;99.90
23591;DHT22;11973;52.098;7.582;2023-11-19T08:47:36;12.10;99.90
23591;DHT22;11973;52.098;7.582;2023-11-19T08:50:02;12.10;99.90
23591;DHT22;11973;52.098;7.582;2023-11-19T08:52:30;12.10;99.90
23591;DHT22;11973;52.098;7.582;2023-11-19T08:54:55;12.10;99.90
23591;DHT22;11973;52.098;7.582;2023-11-19T08:57:21;12.10;99.90
23591;DHT22;11973;52.098;7.582;2023-11-19T08:59:47;12.10;99.90
23591;DHT22;11973;52.098;7.582;2023-11-19T09:02:13;12.20;99.90
23591;DHT22;11973;52.098;7.582;2023-11-19T09:04:40;12.20;99.90
23591;DHT22;11973;52.098;7.582;2023-11-19T09:07:06;12.10;99.90
23591;DHT22;11973;52.098;7.582;2023-11-19T09:09:35;12.10;99.90
23591;DHT22;11973;52.098;7.582;2023-11-19T09:12:02;12.10;99.90
23591;DHT22;11973;52.098;7.582;2023-11-19T09:14:29;12.10;99.90
23591;DHT22;11973;52.098;7.582;2023-11-19T09:16:56;12.10;99.90
23591;DHT22;11973;52.098;7.582;2023-11-19T09:19:22;12.10;99.90
23591;DHT22;11973;52.098;7.582;2023-11-19T09:21:48;12.20;99.90
23591;DHT22;11973;52.098;7.582;2023-11-19T09:24:16;12.20;99.90
23591;DHT22;11973;52.098;7.582;2023-11-19T09:26:41;12.20;99.90
23591;DHT22;11973;52.098;7.582;2023-11-19T09:29:08;12.20;99.90
23591;DHT22;11973;52.098;7.582;2023-11-19T09:31:34;12.20;99.90
23591;DHT22;11973;52.098;7.582;2023-11-19T09:34:00;12.30;99.90
23591;DHT22;11973;52.098;7.582;2023-11-19T09:36:26;12.20;99.90
23591;DHT22;11973;52.098;7.582;2023-11-19T09:38:52;12.30;99.90
23591;DHT22;11973;52.098;7.582;2023-11-19T09:41:18;12.30;99.90
23591;DHT22;11973;52.098;7.582;2023-11-19T09:43:45;12.30;99.90
23591;DHT22;11973;52.098;7.582;2023-11-19T09:46:13;12.40;99.90
23591;DHT22;11973;52.098;7.582;2023-11-19T09:48:39;12.50;99.90
23591;DHT22;11973;52.098;7.582;2023-11-19T09:51:11;12.50;99.90
23591;DHT22;11973;52.098;7.582;2023-11-19T09:53:37;12.60;99.90
23591;DHT22;11973;52.098;7.582;2023-11-19T09:56:04;12.50;99.90
23591;DHT22;11973;52.098;7.582;2023-11-19T09:58:33;12.50;99.90
23591;DHT22;11973;52.098;7.582;2023-11-19T10:01:00;12.50;99.90
23591;DHT22;11973;52.098;7.582;2023-11-19T10:03:27;12.40;99.90
23591;DHT22;11973;52.098;7.582;2023-11-19T10:05:55;12.50;99.90
23591;DHT22;11973;52.098;7.582;2023-11-19T10:08:22;12.50;99.90
23591;DHT22;11973;52.098;7.582;2023-11-19T10:10:48;12.50;99.90
23591;DHT22;11973;52.098;7.582;2023-11-19T10:13:14;12.60;99.90
23591;DHT22;11973;52.098;7.582;2023-11-19T10:15:40;12.70;99.90
23591;DHT22;11973;52.098;7.582;2023-11-19T10:18:06;12.70;99.90
23591;DHT22;11973;52.098;7.582;2023-11-19T10:20:36;12.70;99.90
23591;DHT22;11973;52.098;7.582;2023-11-19T10:23:03;12.70;99.90
23591;DHT22;11973;52.098;7.582;2023-11-19T10:25:29;12.70;99.90
23591;DHT22;11973;52.098;7.582;2023-11-19T10:27:56;12.70;99.90
23591;DHT22;11973;52.098;7.582;2023-11-19T10:30:28;12.70;99.90
23591;DHT22;11973;52.098;7.582;2023-11-19T10:35:55;12.70;99.90
23591;DHT22;11973;52.098;7.582;2023-11-19T10:38:25;12.80;99.90
23591;DHT22;11973;52.098;7.582;2023-11-19T10:40:52;12.80;99.90
23591;DHT22;11973;52.098;7.582;2023-11-19T10:43:19;12.80;99.90
23591;DHT22;11973;52.098;7.582;2023-11-19T10:45:45;12.80;99.90
23591;DHT22;11973;52.098;7.582;2023-11-19T10:48:11;12.80;99.90
23591;DHT22;11973;52.098;7.582;2023-11-19T10:50:39;12.80;99.90
23591;DHT22;11973;52.098;7.582;2023-11-19T10:53:07;12.80;99.90
23591;DHT22;11973;52.098;7.582;2023-11-19T10:55:35;12.80;99.90
23591;DHT22;11973;52.098;7.582;2023-11-19T10:58:04;12.90;99.90
23591;DHT22;11973;52.098;7.582;2023-11-19T11:03:09;12.90;99.90
23591;DHT22;11973;52.098;7.582;2023-11-19T11:05:37;12.90;99.90
23591;DHT22;11973;52.098;7.582;2023-11-19T11:08:06;12.90;99.90
23591;DHT22;11973;52.098;7.582;2023-11-19T11:10:36;13.00;99.90
23591;DHT22;11973;52.098;7.582;2023-11-19T11:13:05;13.00;99.90
23591;DHT22;11973;52.098;7.582;2023-11-19T11:15:32;13.10;99.90
23591;DHT22;11973;52.098;7.582;2023-11-19T11:18:06;13.20;99.90
23591;DHT22;11973;52.098;7.582;2023-11-19T11:20:34;13.30;99.90
23591;DHT22;11973;52.098;7.582;2023-11-19T11:39:24;13.30;99.90
23591;DHT22;11973;52.098;7.582;2023-11-19T11:45:07;13.20;99.90
23591;DHT22;11973;52.098;7.582;2023-11-19T11:50:17;13.10;99.90
23591;DHT22;11973;52.098;7.582;2023-11-19T11:55:34;13.00;99.90
23591;DHT22;11973;52.098;7.582;2023-11-19T11:58:07;13.00;99.90
23591;DHT22;11973;52.098;7.582;2023-11-19T12:00:40;13.00;99.90
23591;DHT22;11973;52.098;7.582;2023-11-19T12:03:08;13.00;99.90
23591;DHT22;11973;52.098;7.582;2023-11-19T12:05:40;13.00;99.90
23591;DHT22;11973;52.098;7.582;2023-11-19T12:08:07;13.00;99.90
23591;DHT22;11973;52.098;7.582;2023-11-19T12:10:47;13.00;99.90
23591;DHT22;11973;52.098;7.582;2023-11-19T12:13:14;13.00;99.90
23591;DHT22;11973;52.098;7.582;2023-11-19T12:18:29;13.10;99.90
23591;DHT22;11973;52.098;7.582;2023-11-19T12:20:55;13.10;99.90
23591;DHT22;11973;52.098;7.582;2023-11-19T12:23:22;13.10;99.90
23591;DHT22;11973;52.098;7.582;2023-11-19T12:25:48;13.20;99.90
23591;DHT22;11973;52.098;7.582;2023-11-19T12:28:17;13.20;99.90
23591;DHT22;11973;52.098;7.582;2023-11-19T12:30:43;13.20;99.90
23591;DHT22;11973;52.098;7.582;2023-11-19T12:33:13;13.30;99.90
23591;DHT22;11973;52.098;7.582;2023-11-19T12:35:46;13.30;99.90
23591;DHT22;11973;52.098;7.582;2023-11-19T12:38:23;13.20;99.90
23591;DHT22;11973;52.098;7.582;2023-11-19T12:41:07;13.20;99.90
23591;DHT22;11973;52.098;7.582;2023-11-19T12:43:34;13.20;99.90
23591;DHT22;11973;52.098;7.582;2023-11-19T12:46:00;13.20;99.90
23591;DHT22;11973;52.098;7.582;2023-11-19T12:48:26;13.20;99.90
23591;DHT22;11973;52.098;7.582;2023-11-19T12:50:58;13.30;99.90
23591;DHT22;11973;52.098;7.582;2023-11-19T12:53:26;13.30;99.90
23591;DHT22;11973;52.098;7.582;2023-11-19T12:55:53;13.40;99.90
23591;DHT22;11973;52.098;7.582;2023-11-19T12:58:34;13.40;99.90
23591;DHT22;11973;52.098;7.582;2023-11-19T13:01:06;13.50;99.90
23591;DHT22;11973;52.098;7.582;2023-11-19T13:03:36;13.60;99.90
23591;DHT22;11973;52.098;7.582;2023-11-19T13:08:41;13.60;99.90
23591;DHT22;11973;52.098;7.582;2023-11-19T13:11:08;13.70;99.90
23591;DHT22;11973;52.098;7.582;2023-11-19T13:13:57;13.70;99.90
23591;DHT22;11973;52.098;7.582;2023-11-19T13:16:25;13.80;99.90
23591;DHT22;11973;52.098;7.582;2023-11-19T13:18:51;13.80;99.90
23591;DHT22;11973;52.098;7.582;2023-11-19T13:21:17;13.90;99.90
23591;DHT22;11973;52.098;7.582;2023-11-19T13:23:43;13.90;99.90
23591;DHT22;11973;52.098;7.582;2023-11-19T13:26:10;14.00;99.90
23591;DHT22;11973;52.098;7.582;2023-11-19T13:28:36;13.90;99.90
23591;DHT22;11973;52.098;7.582;2023-11-19T13:31:03;13.90;99.90
23591;DHT22;11973;52.098;7.582;2023-11-19T13:33:28;13.80;99.90
23591;DHT22;11973;52.098;7.582;2023-11-19T13:35:55;13.80;99.90
23591;DHT22;11973;52.098;7.582;2023-11-19T13:38:21;13.70;99.90
23591;DHT22;11973;52.098;7.582;2023-11-19T13:40:46;13.70;99.90
23591;DHT22;11973;52.098;7.582;2023-11-19T13:43:13;13.60;99.90
23591;DHT22;11973;52.098;7.582;2023-11-19T13:45:38;13.60;99.90
23591;DHT22;11973;52.098;7.582;2023-11-19T13:48:04;13.50;99.90
23591;DHT22;11973;52.098;7.582;2023-11-19T13:50:31;13.40;99.90
23591;DHT22;11973;52.098;7.582;2023-11-19T13:52:57;13.30;99.90
23591;DHT22;11973;52.098;7.582;2023-11-19T13:55:23;13.30;99.90
23591;DHT22;11973;52.098;7.582;2023-11-19T13:57:49;13.20;99.90
23591;DHT22;11973;52.098;7.582;2023-11-19T14:00:15;13.20;99.90
23591;DHT22;11973;52.098;7.582;2023-11-19T14:02:45;13.10;99.90
23591;DHT22;11973;52.098;7.582;2023-11-19T14:05:12;13.00;99.90
23591;DHT22;11973;52.098;7.582;2023-11-19T14:07:38;13.00;99.90
23591;DHT22;11973;52.098;7.582;2023-11-19T14:10:05;12.90;99.90
23591;DHT22;11973;52.098;7.582;2023-11-19T14:12:32;12.80;99.90
23591;DHT22;11973;52.098;7.582;2023-11-19T14:14:58;12.80;99.90
23591;DHT22;11973;52.098;7.582;2023-11-19T14:17:25;12.80;99.90
23591;DHT22;11973;52.098;7.582;2023-11-19T14:19:51;12.80;99.90
23591;DHT22;11973;52.098;7.582;2023-11-19T14:22:17;12.80;99.90
23591;DHT22;11973;52.098;7.582;2023-11-19T14:24:43;12.80;99.90
23591;DHT22;11973;52.098;7.582;2023-11-19T14:27:12;12.80;99.90
23591;DHT22;11973;52.098;7.582;2023-11-19T14:29:37;12.80;99.90
23591;DHT22;11973;52.098;7.582;2023-11-19T14:32:03;12.90;99.90
23591;DHT22;11973;52.098;7.582;2023-11-19T14:34:30;12.90;99.90
23591;DHT22;11973;52.098;7.582;2023-11-19T14:36:56;13.00;99.90
23591;DHT22;11973;52.098;7.582;2023-11-19T14:39:22;13.00;99.90
23591;DHT22;11973;52.098;7.582;2023-11-19T14:41:48;13.10;99.90
23591;DHT22;11973;52.098;7.582;2023-11-19T14:44:15;13.00;99.90
23591;DHT22;11973;52.098;7.582;2023-11-19T14:46:41;13.00;99.90
23591;DHT22;11973;52.098;7.582;2023-11-19T14:49:06;13.00;99.90
23591;DHT22;11973;52.098;7.582;2023-11-19T14:51:38;13.00;99.90
23591;DHT22;11973;52.098;7.582;2023-11-19T14:54:05;13.00;99.90
23591;DHT22;11973;52.098;7.582;2023-11-19T14:56:31;13.00;99.90
23591;DHT22;11973;52.098;7.582;2023-11-19T14:58:57;13.00;99.90
23591;DHT22;11973;52.098;7.582;2023-11-19T15:01:23;12.90;99.90
23591;DHT22;11973;52.098;7.582;2023-11-19T15:03:48;12.90;99.90
23591;DHT22;11973;52.098;7.582;2023-11-19T15:06:14;12.90;99.90
23591;DHT22;11973;52.098;7.582;2023-11-19T15:08:40;12.80;99.90
23591;DHT22;11973;52.098;7.582;2023-11-19T15:11:08;12.80;99.90
23591;DHT22;11973;52.098;7.582;2023-11-19T15:13:35;12.80;99.90
23591;DHT22;11973;52.098;7.582;2023-11-19T15:16:03;12.70;99.90
23591;DHT22;11973;52.098;7.582;2023-11-19T15:18:31;12.70;99.90
23591;DHT22;11973;52.098;7.582;2023-11-19T15:20:57;12.60;99.90
23591;DHT22;11973;52.098;7.582;2023-11-19T15:23:23;12.60;99.90
23591;DHT22;11973;52.098;7.582;2023-11-19T15:25:49;12.60;99.90
23591;DHT22;11973;52.098;7.582;2023-11-19T15:28:15;12.50;99.90
23591;DHT22;11973;52.098;7.582;2023-11-19T15:30:40;12.50;99.90
23591;DHT22;11973;52.098;7.582;2023-11-19T15:33:07;12.50;99.90
23591;DHT22;11973;52.098;7.582;2023-11-19T15:35:34;12.50;99.90
23591;DHT22;11973;52.098;7.582;2023-11-19T15:38:01;12.40;99.90
23591;DHT22;11973;52.098;7.582;2023-11-19T15:40:26;12.40;99.90
23591;DHT22;11973;52.098;7.582;2023-11-19T15:42:53;12.40;99.90
23591;DHT22;11973;52.098;7.582;2023-11-19T15:45:20;12.30;99.90
23591;DHT22;11973;52.098;7.582;2023-11-19T15:47:46;12.30;99.90
23591;DHT22;11973;52.098;7.582;2023-11-19T15:50:12;12.30;99.90
23591;DHT22;11973;52.098;7.582;2023-11-19T15:52:38;12.30;99.90
23591;DHT22;11973;52.098;7.582;2023-11-19T15:55:05;12.30;99.90
23591;DHT22;11973;52.098;7.582;2023-11-19T15:57:30;12.20;99.90
23591;DHT22;11973;52.098;7.582;2023-11-19T15:59:56;12.20;99.90
23591;DHT22;11973;52.098;7.582;2023-11-19T16:02:22;12.30;99.90
23591;DHT22;11973;52.098;7.582;2023-11-19T16:04:48;12.10;99.90
23591;DHT22;11973;52.098;7.582;2023-11-19T16:07:14;12.10;99.90
23591;DHT22;11973;52.098;7.582;2023-11-19T16:09:40;12.20;99.90
23591;DHT22;11973;52.098;7.582;2023-11-19T16:12:08;12.10;99.90
23591;DHT22;11973;52.098;7.582;2023-11-19T16:14:34;12.10;99.90
23591;DHT22;11973;52.098;7.582;2023-11-19T16:17:00;12.10;99.90
23591;DHT22;11973;52.098;7.582;2023-11-19T16:19:26;12.10;99.90
23591;DHT22;11973;52.098;7.582;2023-11-19T16:21:55;12.10;99.90
23591;DHT22;11973;52.098;7.582;2023-11-19T16:24:21;12.00;99.90
23591;DHT22;11973;52.098;7.582;2023-11-19T16:26:47;12.10;99.90
23591;DHT22;11973;52.098;7.582;2023-11-19T16:29:13;12.00;99.90
23591;DHT22;11973;52.098;7.582;2023-11-19T16:31:39;12.00;99.90
23591;DHT22;11973;52.098;7.582;2023-11-19T16:34:08;12.00;99.90
23591;DHT22;11973;52.098;7.582;2023-11-19T16:36:34;12.00;99.90
23591;DHT22;11973;52.098;7.582;2023-11-19T16:39:00;11.90;99.90
23591;DHT22;11973;52.098;7.582;2023-11-19T16:41:26;11.90;99.90
23591;DHT22;11973;52.098;7.582;2023-11-19T16:43:52;11.90;99.90
23591;DHT22;11973;52.098;7.582;2023-11-19T16:46:20;11.90;99.90
23591;DHT22;11973;52.098;7.582;2023-11-19T16:48:46;12.00;99.90
23591;DHT22;11973;52.098;7.582;2023-11-19T16:51:15;11.90;99.90
23591;DHT22;11973;52.098;7.582;2023-11-19T16:53:45;11.90;99.90
23591;DHT22;11973;52.098;7.582;2023-11-19T16:56:14;11.90;99.90
23591;DHT22;11973;52.098;7.582;2023-11-19T16:58:40;11.90;99.90
23591;DHT22;11973;52.098;7.582;2023-11-19T17:01:09;11.90;99.90
23591;DHT22;11973;52.098;7.582;2023-11-19T17:03:42;11.90;99.90
23591;DHT22;11973;52.098;7.582;2023-11-19T17:06:14;11.90;99.90
23591;DHT22;11973;52.098;7.582;2023-11-19T17:08:40;12.00;99.90
23591;DHT22;11973;52.098;7.582;2023-11-19T17:11:06;11.90;99.90
23591;DHT22;11973;52.098;7.582;2023-11-19T17:13:33;11.90;99.90
23591;DHT22;11973;52.098;7.582;2023-11-19T17:15:58;11.90;99.90
23591;DHT22;11973;52.098;7.582;2023-11-19T17:18:24;11.90;99.90
23591;DHT22;11973;52.098;7.582;2023-11-19T17:20:50;11.90;99.90
23591;DHT22;11973;52.098;7.582;2023-11-19T17:23:17;11.90;99.90
23591;DHT22;11973;52.098;7.582;2023-11-19T17:25:43;11.90;99.90
23591;DHT22;11973;52.098;7.582;2023-11-19T17:28:08;11.90;99.90
23591;DHT22;11973;52.098;7.582;2023-11-19T17:30:35;11.90;99.90
23591;DHT22;11973;52.098;7.582;2023-11-19T17:33:01;11.90;99.90
23591;DHT22;11973;52.098;7.582;2023-11-19T17:35:27;11.90;99.90
23591;DHT22;11973;52.098;7.582;2023-11-19T17:37:54;11.80;99.90
23591;DHT22;11973;52.098;7.582;2023-11-19T17:40:19;11.80;99.90
23591;DHT22;11973;52.098;7.582;2023-11-19T17:42:46;11.90;99.90
23591;DHT22;11973;52.098;7.582;2023-11-19T17:45:12;11.80;99.90
23591;DHT22;11973;52.098;7.582;2023-11-19T17:47:39;11.80;99.90
23591;DHT22;11973;52.098;7.582;2023-11-19T17:50:05;11.80;99.90
23591;DHT22;11973;52.098;7.582;2023-11-19T17:52:32;11.80;99.90
23591;DHT22;11973;52.098;7.582;2023-11-19T17:54:59;11.80;99.90
23591;DHT22;11973;52.098;7.582;2023-11-19T17:57:25;11.90;99.90
23591;DHT22;11973;52.098;7.582;2023-11-19T17:59:52;11.80;99.90
23591;DHT22;11973;52.098;7.582;2023-11-19T18:02:17;11.80;99.90
23591;DHT22;11973;52.098;7.582;2023-11-19T18:04:47;11.80;99.90
23591;DHT22;11973;52.098;7.582;2023-11-19T18:07:16;11.80;99.90
23591;DHT22;11973;52.098;7.582;2023-11-19T18:09:46;11.80;99.90
23591;DHT22;11973;52.098;7.582;2023-11-19T18:12:12;11.80;99.90
23591;DHT22;11973;52.098;7.582;2023-11-19T18:14:39;11.80;99.90
23591;DHT22;11973;52.098;7.582;2023-11-19T18:17:05;11.80;99.90
23591;DHT22;11973;52.098;7.582;2023-11-19T18:19:31;11.80;99.90
23591;DHT22;11973;52.098;7.582;2023-11-19T18:21:57;11.80;99.90
23591;DHT22;11973;52.098;7.582;2023-11-19T18:24:28;11.90;99.90
23591;DHT22;11973;52.098;7.582;2023-11-19T18:26:55;11.80;99.90
23591;DHT22;11973;52.098;7.582;2023-11-19T18:29:21;11.80;99.90
23591;DHT22;11973;52.098;7.582;2023-11-19T18:31:47;11.90;99.90
23591;DHT22;11973;52.098;7.582;2023-11-19T18:34:12;11.80;99.90
23591;DHT22;11973;52.098;7.582;2023-11-19T18:36:39;11.80;99.90
23591;DHT22;11973;52.098;7.582;2023-11-19T18:39:05;11.90;99.90
23591;DHT22;11973;52.098;7.582;2023-11-19T18:41:38;11.90;99.90
23591;DHT22;11973;52.098;7.582;2023-11-19T18:44:05;11.80;99.90
23591;DHT22;11973;52.098;7.582;2023-11-19T18:46:33;11.80;99.90
23591;DHT22;11973;52.098;7.582;2023-11-19T18:48:58;11.80;99.90
23591;DHT22;11973;52.098;7.582;2023-11-19T18:51:25;11.80;99.90
23591;DHT22;11973;52.098;7.582;2023-11-19T18:53:51;11.80;99.90
23591;DHT22;11973;52.098;7.582;2023-11-19T18:56:17;11.70;99.90
23591;DHT22;11973;52.098;7.582;2023-11-19T18:58:43;11.70;99.90
23591;DHT22;11973;52.098;7.582;2023-11-19T19:01:10;11.70;99.90
23591;DHT22;11973;52.098;7.582;2023-11-19T19:03:38;11.60;99.90
23591;DHT22;11973;52.098;7.582;2023-11-19T19:06:04;11.60;99.90
23591;DHT22;11973;52.098;7.582;2023-11-19T19:08:32;11.60;99.90
23591;DHT22;11973;52.098;7.582;2023-11-19T19:10:59;11.50;99.90
23591;DHT22;11973;52.098;7.582;2023-11-19T19:13:24;11.50;99.90
23591;DHT22;11973;52.098;7.582;2023-11-19T19:15:51;11.50;99.90
23591;DHT22;11973;52.098;7.582;2023-11-19T19:18:16;11.50;99.90
23591;DHT22;11973;52.098;7.582;2023-11-19T19:20:45;11.50;99.90
23591;DHT22;11973;52.098;7.582;2023-11-19T19:23:12;11.40;99.90
23591;DHT22;11973;52.098;7.582;2023-11-19T19:25:37;11.40;99.90
23591;DHT22;11973;52.098;7.582;2023-11-19T19:28:03;11.40;99.90
23591;DHT22;11973;52.098;7.582;2023-11-19T19:30:31;11.40;99.90
23591;DHT22;11973;52.098;7.582;2023-11-19T19:32:57;11.40;99.90
23591;DHT22;11973;52.098;7.582;2023-11-19T19:35:23;11.50;99.90
23591;DHT22;11973;52.098;7.582;2023-11-19T19:37:54;11.40;99.90
23591;DHT22;11973;52.098;7.582;2023-11-19T19:40:20;11.30;99.90
23591;DHT22;11973;52.098;7.582;2023-11-19T19:42:46;11.30;99.90
23591;DHT22;11973;52.098;7.582;2023-11-19T19:45:12;11.30;99.90
23591;DHT22;11973;52.098;7.582;2023-11-19T19:47:38;11.30;99.90
23591;DHT22;11973;52.098;7.582;2023-11-19T19:50:05;11.30;99.90
23591;DHT22;11973;52.098;7.582;2023-11-19T19:52:45;11.30;99.90
23591;DHT22;11973;52.098;7.582;2023-11-19T19:55:10;11.30;99.90
23591;DHT22;11973;52.098;7.582;2023-11-19T19:57:37;11.30;99.90
23591;DHT22;11973;52.098;7.582;2023-11-19T20:00:04;11.30;99.90
23591;DHT22;11973;52.098;7.582;2023-11-19T20:02:36;11.30;99.90
23591;DHT22;11973;52.098;7.582;2023-11-19T20:05:02;11.30;99.90
23591;DHT22;11973;52.098;7.582;2023-11-19T20:07:29;11.30;99.90
23591;DHT22;11973;52.098;7.582;2023-11-19T20:09:55;11.30;99.90
23591;DHT22;11973;52.098;7.582;2023-11-19T20:12:21;11.30;99.90
23591;DHT22;11973;52.098;7.582;2023-11-19T20:14:48;11.30;99.90
23591;DHT22;11973;52.098;7.582;2023-11-19T20:17:14;11.40;99.90
23591;DHT22;11973;52.098;7.582;2023-11-19T20:19:41;11.30;99.90
23591;DHT22;11973;52.098;7.582;2023-11-19T20:22:07;11.30;99.90
23591;DHT22;11973;52.098;7.582;2023-11-19T20:24:32;11.30;99.90
23591;DHT22;11973;52.098;7.582;2023-11-19T20:26:59;11.30;99.90
23591;DHT22;11973;52.098;7.582;2023-11-19T20:29:24;11.30;99.90
23591;DHT22;11973;52.098;7.582;2023-11-19T20:31:50;11.20;99.90
23591;DHT22;11973;52.098;7.582;2023-11-19T20:34:16;11.20;99.90
23591;DHT22;11973;52.098;7.582;2023-11-19T20:36:43;11.20;99.90
23591;DHT22;11973;52.098;7.582;2023-11-19T20:39:08;11.20;99.90
23591;DHT22;11973;52.098;7.582;2023-11-19T20:41:34;11.20;99.90
23591;DHT22;11973;52.098;7.582;2023-11-19T20:44:00;11.20;99.90
23591;DHT22;11973;52.098;7.582;2023-11-19T20:46:25;11.20;99.90
23591;DHT22;11973;52.098;7.582;2023-11-19T20:48:51;11.20;99.90
23591;DHT22;11973;52.098;7.582;2023-11-19T20:51:17;11.20;99.90
23591;DHT22;11973;52.098;7.582;2023-11-19T20:53:44;11.20;99.90
23591;DHT22;11973;52.098;7.582;2023-11-19T20:56:10;11.20;99.90
23591;DHT22;11973;52.098;7.582;2023-11-19T20:58:36;11.20;99.90
23591;DHT22;11973;52.098;7.582;2023-11-19T21:01:02;11.20;99.90
23591;DHT22;11973;52.098;7.582;2023-11-19T21:03:31;11.20;99.90
23591;DHT22;11973;52.098;7.582;2023-11-19T21:06:03;11.20;99.90
23591;DHT22;11973;52.098;7.582;2023-11-19T21:08:29;11.10;99.90